Time;durP1;ratioP1;P1;durP2;ratioP2;P2;SDS_P1;SDS_P2;PMS_P1;PMS_P2;Temp;Humidity;BMP_temperature;BMP_pressure;BME280_temperature;BME280_humidity;BME280_pressure;Samples;Min_cycle;Max_cycle;Signal;HPM_P1;HPM_P2
2022/10/15 00:02:17;;;;;;;;;;;;;;;12.15;84.08496;100765.7;;;;-75
2022/10/15 00:07:15;;;;;;;;;;;;;;;12.13;83.85938;100755.3;;;;-76
2022/10/15 00:07:27;;;;;;;18.3;9;;;;;;;;;;;;;-76
2022/10/15 00:12:15;;;;;;;;;;;;;;;12.1;84.21973;100751.8;;;;-75
2022/10/15 00:17:15;;;;;;;;;;;;;;;12.09;83.90723;100748.9;;;;-76
2022/10/15 00:22:15;;;;;;;;;;;;;;;12.08;84.57129;100742;;;;-75
2022/10/15 00:27:15;;;;;;;;;;;;;;;12.07;84.56934;100742.1;;;;-76
2022/10/15 00:32:15;;;;;;;;;;;;;;;12.06;84.24609;100740.1;;;;-75
2022/10/15 00:37:16;;;;;;;;;;;;;;;12.06;84.35547;100736;;;;-75
2022/10/15 00:37:26;;;;;;;20.6;10;;;;;;;;;;;;;-75
2022/10/15 00:42:16;;;;;;;;;;;;;;;12.04;84.50879;100743.9;;;;-74
2022/10/15 00:47:18;;;;;;;;;;;;;;;12.01;84.1709;100741.2;;;;-75
2022/10/15 00:52:16;;;;;;;;;;;;;;;12.02;84.79199;100738.8;;;;-76
2022/10/15 00:57:15;;;;;;;;;;;;;;;12.02;84.2168;100738.7;;;;-76
2022/10/15 01:02:15;;;;;;;;;;;;;;;12.03;84.83789;100738.9;;;;-75
2022/10/15 01:07:15;;;;;;;;;;;;;;;12.05;84.9541;100741.2;;;;-75
2022/10/15 01:07:26;;;;;;;24;11.2;;;;;;;;;;;;;-74
2022/10/15 01:12:18;;;;;;;;;;;;;;;12.08;85.64551;100737.7;;;;-76
2022/10/15 01:17:23;;;;;;;;;;;;;;;12.05;84.25391;100727.4;;;;-76
2022/10/15 01:22:19;;;;;;;;;;;;;;;12.04;84.47363;100724.8;;;;-75
2022/10/15 01:27:26;;;;;;;;;;;;;;;12.01;84.42383;100718.6;;;;-74
2022/10/15 01:32:18;;;;;;;;;;;;;;;12.01;84.79199;100715.4;;;;-75
2022/10/15 01:37:19;;;;;;;;;;;;;;;12.01;84.52441;100711.2;;;;-74
2022/10/15 01:37:36;;;;;;;23.4;12;;;;;;;;;;;;;-74
2022/10/15 01:42:18;;;;;;;;;;;;;;;12.01;84.84766;100709.5;;;;-76
2022/10/15 01:47:17;;;;;;;;;;;;;;;12;84.35645;100706.6;;;;-73
2022/10/15 01:52:17;;;;;;;;;;;;;;;11.98;84.51855;100702.6;;;;-74
2022/10/15 01:57:16;;;;;;;;;;;;;;;11.94;84.36816;100698.4;;;;-75
2022/10/15 02:02:15;;;;;;;;;;;;;;;11.9;84.27051;100695.2;;;;-76
2022/10/15 02:07:18;;;;;;;;;;;;;;;11.85;84.76074;100683.6;;;;-74
2022/10/15 02:07:34;;;;;;;26.3;12.4;;;;;;;;;;;;;-74
2022/10/15 02:12:23;;;;;;;;;;;;;;;11.8;84.7832;100677.3;;;;-75
2022/10/15 02:17:15;;;;;;;;;;;;;;;11.77;84.2793;100675.5;;;;-75
2022/10/15 02:22:17;;;;;;;;;;;;;;;11.74;84.33887;100670.5;;;;-74
2022/10/15 02:27:17;;;;;;;;;;;;;;;11.73;84.58105;100667.3;;;;-75
2022/10/15 02:32:17;;;;;;;;;;;;;;;11.71;84.04492;100669;;;;-74
2022/10/15 02:37:15;;;;;;;;;;;;;;;11.71;84.02148;100667.6;;;;-75
2022/10/15 02:37:31;;;;;;;23.2;12.4;;;;;;;;;;;;;-73
2022/10/15 02:42:16;;;;;;;;;;;;;;;11.7;84.02148;100662.4;;;;-75
2022/10/15 02:47:15;;;;;;;;;;;;;;;11.71;83.8125;100657.7;;;;-74
2022/10/15 02:57:15;;;;;;;;;;;;;;;11.75;83.82129;100647.4;;;;-77
2022/10/15 03:02:15;;;;;;;;;;;;;;;11.73;83.9043;100645;;;;-76
2022/10/15 03:07:15;;;;;;;;;;;;;;;11.74;84.01758;100641.7;;;;-77
2022/10/15 03:07:31;;;;;;;22.9;12.6;;;;;;;;;;;;;-74
2022/10/15 03:12:16;;;;;;;;;;;;;;;11.76;83.66797;100633.5;;;;-75
2022/10/15 03:17:15;;;;;;;;;;;;;;;11.78;84.15918;100629.9;;;;-75
2022/10/15 03:22:16;;;;;;;;;;;;;;;11.8;83.55273;100632;;;;-76
2022/10/15 03:27:16;;;;;;;;;;;;;;;11.81;83.56738;100631.7;;;;-75
2022/10/15 03:32:15;;;;;;;;;;;;;;;11.84;83.91602;100624.8;;;;-76
2022/10/15 03:37:15;;;;;;;;;;;;;;;11.86;83.84082;100630.8;;;;-76
2022/10/15 03:37:32;;;;;;;29.1;14.1;;;;;;;;;;;;;-74
2022/10/15 03:42:15;;;;;;;;;;;;;;;11.87;83.5;100625.3;;;;-75
2022/10/15 03:47:18;;;;;;;;;;;;;;;11.88;84.02246;100622;;;;-74
2022/10/15 03:52:16;;;;;;;;;;;;;;;11.92;84.5293;100620.3;;;;-75
2022/10/15 03:57:14;;;;;;;;;;;;;;;11.99;84.55176;100623.4;;;;-76
2022/10/15 04:02:15;;;;;;;;;;;;;;;12;85.00977;100624.2;;;;-74
2022/10/15 04:07:15;;;;;;;;;;;;;;;12;84.40039;100625.6;;;;-75
2022/10/15 04:07:33;;;;;;;30.3;15.4;;;;;;;;;;;;;-76
2022/10/15 04:12:15;;;;;;;;;;;;;;;12.03;85.56934;100626.7;;;;-75
2022/10/15 04:17:15;;;;;;;;;;;;;;;12.05;85.44043;100627.1;;;;-75
2022/10/15 04:22:15;;;;;;;;;;;;;;;12.04;84.80664;100627.7;;;;-75
2022/10/15 04:27:15;;;;;;;;;;;;;;;12.08;85.72266;100636.8;;;;-75
2022/10/15 04:32:16;;;;;;;;;;;;;;;12.07;85.36816;100633.3;;;;-75
2022/10/15 04:37:16;;;;;;;;;;;;;;;12.1;85.90527;100627.7;;;;-74
2022/10/15 04:37:35;;;;;;;34.7;17.2;;;;;;;;;;;;;-75
2022/10/15 04:42:15;;;;;;;;;;;;;;;12.11;85.39746;100627.9;;;;-75
2022/10/15 04:47:15;;;;;;;;;;;;;;;12.13;85.96582;100623.6;;;;-76
2022/10/15 04:52:15;;;;;;;;;;;;;;;12.15;86.5918;100620.5;;;;-75
2022/10/15 04:57:15;;;;;;;;;;;;;;;12.17;86.76172;100618.2;;;;-74
2022/10/15 05:02:15;;;;;;;;;;;;;;;12.18;86.81934;100617.2;;;;-76
2022/10/15 05:07:18;;;;;;;;;;;;;;;12.2;87.48828;100619.4;;;;-76
2022/10/15 05:07:36;;;;;;;38;18.9;;;;;;;;;;;;;-75
2022/10/15 05:12:17;;;;;;;;;;;;;;;12.23;88.00293;100618.3;;;;-75
2022/10/15 05:17:15;;;;;;;;;;;;;;;12.24;87.4082;100616.2;;;;-76
2022/10/15 05:22:15;;;;;;;;;;;;;;;12.27;88.74219;100612.1;;;;-76
2022/10/15 05:27:15;;;;;;;;;;;;;;;12.22;87.94824;100606.1;;;;-74
2022/10/15 05:32:19;;;;;;;;;;;;;;;12.2;87.45508;100614.5;;;;-75
2022/10/15 05:37:15;;;;;;;;;;;;;;;12.15;87.00195;100613.5;;;;-75
2022/10/15 05:37:37;;;;;;;35;18.1;;;;;;;;;;;;;-75
2022/10/15 05:42:18;;;;;;;;;;;;;;;12.11;86.86035;100608.6;;;;-75
2022/10/15 05:47:15;;;;;;;;;;;;;;;12.07;86.94141;100602.9;;;;-75
2022/10/15 05:52:15;;;;;;;;;;;;;;;12.03;86.84375;100609.5;;;;-75
2022/10/15 05:57:17;;;;;;;;;;;;;;;12.02;87.24316;100612.7;;;;-76
2022/10/15 06:02:16;;;;;;;;;;;;;;;12.04;86.91211;100612.5;;;;-75
2022/10/15 06:07:15;;;;;;;;;;;;;;;12.05;87.94434;100610.1;;;;-76
2022/10/15 06:07:39;;;;;;;40.6;20;;;;;;;;;;;;;-76
2022/10/15 06:12:14;;;;;;;;;;;;;;;12.05;87.61426;100612.3;;;;-75
2022/10/15 06:17:15;;;;;;;;;;;;;;;12.09;88.69727;100606.4;;;;-75
2022/10/15 06:22:15;;;;;;;;;;;;;;;12.13;89.47852;100605.5;;;;-76
2022/10/15 06:27:14;;;;;;;;;;;;;;;12.12;88.98926;100602.5;;;;-75
2022/10/15 06:32:15;;;;;;;;;;;;;;;12.15;89.04102;100599.9;;;;-75
2022/10/15 06:37:15;;;;;;;;;;;;;;;12.18;89.89941;100596.4;;;;-75
2022/10/15 06:37:40;;;;;;;47.4;22.4;;;;;;;;;;;;;-75
2022/10/15 06:42:16;;;;;;;;;;;;;;;12.16;89.74023;100596.6;;;;-74
2022/10/15 06:47:14;;;;;;;;;;;;;;;12.18;89.66699;100595.3;;;;-74
2022/10/15 06:52:14;;;;;;;;;;;;;;;12.18;89.43457;100603.7;;;;-78
2022/10/15 06:57:16;;;;;;;;;;;;;;;12.22;89.57422;100594.5;;;;-76
2022/10/15 07:02:16;;;;;;;;;;;;;;;12.25;90.24414;100599.2;;;;-76
2022/10/15 07:07:15;;;;;;;;;;;;;;;12.26;90.1377;100601.4;;;;-74
2022/10/15 07:07:42;;;;;;;44.7;21.9;;;;;;;;;;;;;-75
2022/10/15 07:12:17;;;;;;;;;;;;;;;12.28;90.37207;100594.6;;;;-76
2022/10/15 07:17:14;;;;;;;;;;;;;;;12.3;89.94531;100604;;;;-75
2022/10/15 07:22:14;;;;;;;;;;;;;;;12.32;90.25977;100600.9;;;;-74
2022/10/15 07:27:14;;;;;;;;;;;;;;;12.35;90.55273;100606;;;;-76
2022/10/15 07:32:15;;;;;;;;;;;;;;;12.38;90.99023;100603.6;;;;-74
2022/10/15 07:37:14;;;;;;;;;;;;;;;12.41;90.71973;100605;;;;-75
2022/10/15 07:42:15;;;;;;;;;;;;;;;12.46;90.81934;100600.7;;;;-76
2022/10/15 07:47:14;;;;;;;;;;;;;;;12.52;90.78809;100585.6;;;;-76
2022/10/15 07:52:17;;;;;;;;;;;;;;;12.6;90.9375;100577.3;;;;-75
2022/10/15 07:57:14;;;;;;;;;;;;;;;12.68;91.14355;100588;;;;-73
2022/10/15 08:02:18;;;;;;;;;;;;;;;12.7;91.03613;100585.6;;;;-75
2022/10/15 08:07:14;;;;;;;;;;;;;;;12.72;91.08594;100590.4;;;;-74
2022/10/15 08:07:44;;;;;;;32.4;15.6;;;;;;;;;;;;;-75
2022/10/15 08:12:16;;;;;;;;;;;;;;;12.77;90.85156;100591;;;;-74
2022/10/15 08:17:15;;;;;;;;;;;;;;;12.8;90.86816;100594.9;;;;-74
2022/10/15 08:22:15;;;;;;;;;;;;;;;12.81;90.94824;100600;;;;-76
2022/10/15 08:27:14;;;;;;;;;;;;;;;12.84;90.78711;100594.1;;;;-76
2022/10/15 08:32:15;;;;;;;;;;;;;;;12.9;90.45703;100601.2;;;;-75
2022/10/15 08:37:15;;;;;;;;;;;;;;;12.95;90.35547;100597.7;;;;-77
2022/10/15 08:37:46;;;;;;;34.4;15.1;;;;;;;;;;;;;-74
2022/10/15 08:42:18;;;;;;;;;;;;;;;13.02;90.48047;100590;;;;-75
2022/10/15 08:47:19;;;;;;;;;;;;;;;13.07;90.09277;100587;;;;-74
2022/10/15 08:52:20;;;;;;;;;;;;;;;13.13;90.19043;100586.6;;;;-73
2022/10/15 08:57:22;;;;;;;;;;;;;;;13.18;90.15918;100583.5;;;;-75
2022/10/15 09:02:19;;;;;;;;;;;;;;;13.22;89.86719;100576.2;;;;-74
2022/10/15 09:07:17;;;;;;;;;;;;;;;13.27;89.97852;100581.1;;;;-74
2022/10/15 09:07:50;;;;;;;35.9;15.6;;;;;;;;;;;;;-75
2022/10/15 09:12:25;;;;;;;;;;;;;;;13.3;89.42871;100579.5;;;;-76
2022/10/15 09:17:20;;;;;;;;;;;;;;;13.37;89.09961;100573.4;;;;-75
2022/10/15 09:22:17;;;;;;;;;;;;;;;13.51;88.72656;100574.3;;;;-75
2022/10/15 09:27:22;;;;;;;;;;;;;;;13.64;88.60742;100564.7;;;;-80
2022/10/15 09:32:20;;;;;;;;;;;;;;;13.7;88.07617;100558.6;;;;-74
2022/10/15 09:37:18;;;;;;;;;;;;;;;13.76;87.8418;100554;;;;-75
2022/10/15 09:37:54;;;;;;;27.3;12.8;;;;;;;;;;;;;-75
2022/10/15 09:42:22;;;;;;;;;;;;;;;13.86;87.52832;100550.1;;;;-75
2022/10/15 09:47:25;;;;;;;;;;;;;;;13.95;87.23438;100552;;;;-76
2022/10/15 09:52:22;;;;;;;;;;;;;;;14.06;86.65723;100548;;;;-75
2022/10/15 09:57:17;;;;;;;;;;;;;;;14.19;86.55957;100533.9;;;;-75
2022/10/15 10:02:23;;;;;;;;;;;;;;;14.28;86.12109;100527.3;;;;-75
2022/10/15 10:07:25;;;;;;;;;;;;;;;14.35;85.54297;100522.1;;;;-74
2022/10/15 10:07:50;;;;;;;20.4;10.8;;;;;;;;;;;;;-75
2022/10/15 10:12:21;;;;;;;;;;;;;;;14.42;85.70117;100523.2;;;;-75
2022/10/15 10:17:28;;;;;;;;;;;;;;;14.5;85.26074;100512.1;;;;-75
2022/10/15 10:22:19;;;;;;;;;;;;;;;14.55;85.26953;100515.3;;;;-75
2022/10/15 10:27:23;;;;;;;;;;;;;;;14.58;85.06445;100520.3;;;;-75
2022/10/15 10:32:22;;;;;;;;;;;;;;;14.62;85.55078;100514.8;;;;-74
2022/10/15 10:37:14;;;;;;;;;;;;;;;14.6;85.19043;100514.7;;;;-74
2022/10/15 10:37:53;;;;;;;17.3;9.6;;;;;;;;;;;;;-74
2022/10/15 10:42:24;;;;;;;;;;;;;;;14.67;85.54883;100513.3;;;;-76
2022/10/15 10:47:21;;;;;;;;;;;;;;;14.7;85.47559;100498.3;;;;-74
2022/10/15 10:52:25;;;;;;;;;;;;;;;14.73;86.34277;100491.5;;;;-75
2022/10/15 10:57:17;;;;;;;;;;;;;;;14.83;86.61719;100493.7;;;;-76
2022/10/15 11:02:18;;;;;;;;;;;;;;;14.93;86.78223;100497.5;;;;-75
2022/10/15 11:07:23;;;;;;;;;;;;;;;14.98;86.33398;100492.2;;;;-75
2022/10/15 11:07:58;;;;;;;12.7;8.3;;;;;;;;;;;;;-74
2022/10/15 11:12:22;;;;;;;;;;;;;;;15.01;85.80469;100489.4;;;;-75
2022/10/15 11:17:17;;;;;;;;;;;;;;;15.05;86.0127;100485.6;;;;-74
2022/10/15 11:22:22;;;;;;;;;;;;;;;15.04;86.02246;100480.4;;;;-75
2022/10/15 11:27:25;;;;;;;;;;;;;;;15.04;85.82129;100476.3;;;;-75
2022/10/15 11:32:23;;;;;;;;;;;;;;;15.06;86.58398;100483.9;;;;-75
2022/10/15 11:37:24;;;;;;;;;;;;;;;15.05;86.48047;100480.8;;;;-74
2022/10/15 11:38:02;;;;;;;9.9;6.2;;;;;;;;;;;;;-76
2022/10/15 11:42:22;;;;;;;;;;;;;;;15.08;86.5332;100475.5;;;;-74
2022/10/15 11:47:25;;;;;;;;;;;;;;;15.13;85.97266;100474.3;;;;-75
2022/10/15 11:52:25;;;;;;;;;;;;;;;15.14;86.37695;100473.4;;;;-73
2022/10/15 11:57:16;;;;;;;;;;;;;;;15.16;86.22559;100476;;;;-73
2022/10/15 12:02:18;;;;;;;;;;;;;;;15.23;86.20313;100469.4;;;;-76
2022/10/15 12:07:21;;;;;;;;;;;;;;;15.25;85.96289;100470.8;;;;-75
2022/10/15 12:07:58;;;;;;;5.7;3.5;;;;;;;;;;;;;-73
2022/10/15 12:12:20;;;;;;;;;;;;;;;15.25;85.78613;100465.7;;;;-75
2022/10/15 12:17:19;;;;;;;;;;;;;;;15.27;86.0459;100466.7;;;;-76
2022/10/15 12:22:14;;;;;;;;;;;;;;;15.26;86.24316;100466.7;;;;-75
2022/10/15 12:27:29;;;;;;;;;;;;;;;15.25;86.16504;100473.9;;;;-75
2022/10/15 12:32:23;;;;;;;;;;;;;;;15.22;86.3125;100471.6;;;;-74
2022/10/15 12:37:19;;;;;;;;;;;;;;;15.24;86.47461;100472.5;;;;-74
2022/10/15 12:38:09;;;;;;;4.8;2.7;;;;;;;;;;;;;-75
2022/10/15 12:42:24;;;;;;;;;;;;;;;15.27;86.6709;100476.8;;;;-74
2022/10/15 12:47:16;;;;;;;;;;;;;;;15.3;86.82227;100477.1;;;;-74
2022/10/15 12:52:25;;;;;;;;;;;;;;;15.27;86.99316;100481.7;;;;-75
2022/10/15 12:57:26;;;;;;;;;;;;;;;15.25;86.97852;100484.1;;;;-76
2022/10/15 13:02:25;;;;;;;;;;;;;;;15.26;86.72363;100481.6;;;;-74
2022/10/15 13:07:18;;;;;;;;;;;;;;;15.3;87.7041;100457.5;;;;-75
2022/10/15 13:08:02;;;;;;;4.5;3.2;;;;;;;;;;;;;-75
2022/10/15 13:12:25;;;;;;;;;;;;;;;15.31;87.83887;100456.5;;;;-75
2022/10/15 13:17:21;;;;;;;;;;;;;;;15.34;87.57715;100452.7;;;;-76
2022/10/15 13:22:23;;;;;;;;;;;;;;;15.39;87.40723;100470.9;;;;-74
2022/10/15 13:27:25;;;;;;;;;;;;;;;15.47;87.03223;100484.1;;;;-75
2022/10/15 13:32:18;;;;;;;;;;;;;;;15.56;86.86035;100487.7;;;;-75
2022/10/15 13:37:22;;;;;;;;;;;;;;;15.62;86.81543;100486;;;;-74
2022/10/15 13:38:03;;;;;;;3.1;2.2;;;;;;;;;;;;;-76
2022/10/15 13:42:17;;;;;;;;;;;;;;;15.7;86.59863;100497.6;;;;-76
2022/10/15 13:47:33;;;;;;;;;;;;;;;15.77;86.22168;100493.9;;;;-75
2022/10/15 13:52:14;;;;;;;;;;;;;;;15.87;85.88184;100495.6;;;;-74
2022/10/15 13:57:17;;;;;;;;;;;;;;;15.88;85.34863;100493.3;;;;-75
2022/10/15 14:02:17;;;;;;;;;;;;;;;15.89;85.38184;100497;;;;-74
2022/10/15 14:07:28;;;;;;;;;;;;;;;15.94;85.0459;100503.9;;;;-74
2022/10/15 14:08:05;;;;;;;3.6;1.4;;;;;;;;;;;;;-74
2022/10/15 14:12:15;;;;;;;;;;;;;;;15.99;84.93164;100500.8;;;;-74
2022/10/15 14:17:16;;;;;;;;;;;;;;;15.97;84.16895;100495.1;;;;-73
2022/10/15 14:22:26;;;;;;;;;;;;;;;15.93;83.91211;100513.2;;;;-74
2022/10/15 14:27:17;;;;;;;;;;;;;;;15.82;83.49023;100521.9;;;;-75
2022/10/15 14:32:28;;;;;;;;;;;;;;;15.69;83.36621;100526.4;;;;-75
2022/10/15 14:37:27;;;;;;;;;;;;;;;15.62;83.31641;100532;;;;-75
2022/10/15 14:38:07;;;;;;;5.4;1.1;;;;;;;;;;;;;-73
2022/10/15 14:42:45;;;;;;;;;;;;;;;15.71;82.88867;100540.8;;;;-73
2022/10/15 14:47:08;;;;;;;;;;;;;;;15.63;82.1582;100550.9;;;;-74
2022/10/15 14:52:10;;;;;;;;;;;;;;;15.55;81.54883;100552.1;;;;-75
2022/10/15 14:57:08;;;;;;;;;;;;;;;15.53;81.42383;100555.4;;;;-75
2022/10/15 15:02:10;;;;;;;;;;;;;;;15.57;81.2832;100556.3;;;;-74
2022/10/15 15:07:09;;;;;;;;;;;;;;;15.52;79.69727;100569.5;;;;-73
2022/10/15 15:08:12;;;;;;;4.8;0.9;;;;;;;;;;;;;-75
2022/10/15 15:12:08;;;;;;;;;;;;;;;15.48;79.12988;100573.3;;;;-74
2022/10/15 15:17:08;;;;;;;;;;;;;;;15.4;77.67188;100573.8;;;;-76
2022/10/15 15:22:08;;;;;;;;;;;;;;;15.3;76.47949;100565.4;;;;-75
2022/10/15 15:27:08;;;;;;;;;;;;;;;15.18;76.625;100570.1;;;;-73
2022/10/15 15:32:08;;;;;;;;;;;;;;;15.06;76.88574;100575.1;;;;-75
2022/10/15 15:37:14;;;;;;;;;;;;;;;14.94;77.12109;100579.8;;;;-74
2022/10/15 15:38:12;;;;;;;4.5;0.7;;;;;;;;;;;;;-75
2022/10/15 15:42:08;;;;;;;;;;;;;;;14.88;77.41211;100583;;;;-74
2022/10/15 15:47:09;;;;;;;;;;;;;;;14.82;77.73633;100589.2;;;;-75
2022/10/15 15:52:09;;;;;;;;;;;;;;;14.74;77.66699;100589.3;;;;-77
2022/10/15 15:57:08;;;;;;;;;;;;;;;14.67;77.88965;100596.1;;;;-76
2022/10/15 16:02:08;;;;;;;;;;;;;;;14.59;78.09961;100594.6;;;;-75
2022/10/15 16:07:08;;;;;;;;;;;;;;;14.53;78.09863;100602.8;;;;-75
2022/10/15 16:08:13;;;;;;;3.6;0.8;;;;;;;;;;;;;-77
2022/10/15 16:12:08;;;;;;;;;;;;;;;14.44;78.22949;100599.8;;;;-74
2022/10/15 16:17:08;;;;;;;;;;;;;;;14.35;78.31348;100605.9;;;;-74
2022/10/15 16:22:08;;;;;;;;;;;;;;;14.25;78.3418;100614.9;;;;-77
2022/10/15 16:27:07;;;;;;;;;;;;;;;14.15;78.5918;100619.8;;;;-74
2022/10/15 16:32:08;;;;;;;;;;;;;;;14.05;78.74023;100617.7;;;;-76
2022/10/15 16:37:08;;;;;;;;;;;;;;;13.95;78.78906;100620.9;;;;-75
2022/10/15 16:38:15;;;;;;;4.2;0.9;;;;;;;;;;;;;-74
2022/10/15 16:42:08;;;;;;;;;;;;;;;13.88;78.92285;100620.4;;;;-74
2022/10/15 16:47:08;;;;;;;;;;;;;;;13.81;78.96387;100626.9;;;;-74
2022/10/15 16:52:08;;;;;;;;;;;;;;;13.72;78.87109;100636.5;;;;-75
2022/10/15 16:57:08;;;;;;;;;;;;;;;13.65;79.24805;100642;;;;-75
2022/10/15 17:02:08;;;;;;;;;;;;;;;13.59;79.30566;100647.2;;;;-75
2022/10/15 17:07:08;;;;;;;;;;;;;;;13.53;79.46094;100652.1;;;;-74
2022/10/15 17:08:16;;;;;;;4.5;0.8;;;;;;;;;;;;;-74
2022/10/15 17:12:08;;;;;;;;;;;;;;;13.48;79.41797;100657.9;;;;-75
2022/10/15 17:17:11;;;;;;;;;;;;;;;13.41;79.69531;100666;;;;-74
2022/10/15 17:22:07;;;;;;;;;;;;;;;13.36;79.76563;100673.5;;;;-75
2022/10/15 17:27:09;;;;;;;;;;;;;;;13.31;79.85547;100672.5;;;;-73
2022/10/15 17:32:07;;;;;;;;;;;;;;;13.29;80.06543;100677.8;;;;-76
2022/10/15 17:37:08;;;;;;;;;;;;;;;13.3;80.14355;100699.1;;;;-73
2022/10/15 17:38:18;;;;;;;4.5;1;;;;;;;;;;;;;-75
2022/10/15 17:42:08;;;;;;;;;;;;;;;13.32;80.40332;100696.2;;;;-75
2022/10/15 17:47:09;;;;;;;;;;;;;;;13.31;80.45703;100693.4;;;;-73
2022/10/15 17:52:08;;;;;;;;;;;;;;;13.31;80.62402;100695.3;;;;-75
2022/10/15 17:57:08;;;;;;;;;;;;;;;13.28;80.57422;100694.5;;;;-74
2022/10/15 18:02:08;;;;;;;;;;;;;;;13.32;80.7041;100704;;;;-74
2022/10/15 18:07:08;;;;;;;;;;;;;;;13.32;80.83789;100701.5;;;;-74
2022/10/15 18:08:19;;;;;;;6;1.2;;;;;;;;;;;;;-75
2022/10/15 18:12:08;;;;;;;;;;;;;;;13.3;80.86719;100708.3;;;;-74
2022/10/15 18:17:08;;;;;;;;;;;;;;;13.26;80.91602;100706.8;;;;-75
2022/10/15 18:22:08;;;;;;;;;;;;;;;13.22;81.00781;100725.3;;;;-75
2022/10/15 18:27:09;;;;;;;;;;;;;;;13.21;80.93945;100727.9;;;;-75
2022/10/15 18:32:08;;;;;;;;;;;;;;;13.23;81.22168;100734.7;;;;-75
2022/10/15 18:37:08;;;;;;;;;;;;;;;13.24;81.07813;100731.4;;;;-75
2022/10/15 18:38:21;;;;;;;6.3;1.4;;;;;;;;;;;;;-75
2022/10/15 18:42:08;;;;;;;;;;;;;;;13.22;81.20898;100740.1;;;;-74
2022/10/15 18:47:10;;;;;;;;;;;;;;;13.2;81.02734;100734.2;;;;-75
2022/10/15 18:52:08;;;;;;;;;;;;;;;13.18;81.22461;100730.7;;;;-74
2022/10/15 18:57:08;;;;;;;;;;;;;;;13.17;81.13379;100736.8;;;;-74
2022/10/15 19:02:08;;;;;;;;;;;;;;;13.15;81.12891;100732.1;;;;-73
2022/10/15 19:07:07;;;;;;;;;;;;;;;13.13;81.17871;100736.5;;;;-76
2022/10/15 19:08:22;;;;;;;5.5;1.2;;;;;;;;;;;;;-74
2022/10/15 19:12:08;;;;;;;;;;;;;;;13.12;81.10156;100729.7;;;;-75
2022/10/15 19:17:08;;;;;;;;;;;;;;;13.14;81.16016;100741.3;;;;-74
2022/10/15 19:22:07;;;;;;;;;;;;;;;13.11;81.17773;100740;;;;-73
2022/10/15 19:27:08;;;;;;;;;;;;;;;13.09;81.22949;100751.1;;;;-75
2022/10/15 19:32:07;;;;;;;;;;;;;;;13.08;81.58203;100753.4;;;;-74
2022/10/15 19:37:08;;;;;;;;;;;;;;;13.06;81.60254;100757;;;;-74
2022/10/15 19:38:24;;;;;;;7.1;1.1;;;;;;;;;;;;;-74
2022/10/15 19:42:07;;;;;;;;;;;;;;;13.06;81.66992;100761;;;;-75
2022/10/15 19:47:08;;;;;;;;;;;;;;;13.06;81.73633;100763.3;;;;-75
2022/10/15 19:52:08;;;;;;;;;;;;;;;13.06;81.8125;100763;;;;-74
2022/10/15 19:57:08;;;;;;;;;;;;;;;13.01;81.78223;100768.5;;;;-75
2022/10/15 20:02:07;;;;;;;;;;;;;;;12.99;81.93262;100777.3;;;;-77
2022/10/15 20:07:08;;;;;;;;;;;;;;;12.96;81.83984;100781;;;;-75
2022/10/15 20:08:26;;;;;;;5.2;1;;;;;;;;;;;;;-75
2022/10/15 20:12:09;;;;;;;;;;;;;;;12.94;82.11426;100777.7;;;;-75
2022/10/15 20:17:07;;;;;;;;;;;;;;;12.92;82.12109;100780.5;;;;-75
2022/10/15 20:22:08;;;;;;;;;;;;;;;12.91;82.04102;100780.8;;;;-76
2022/10/15 20:27:07;;;;;;;;;;;;;;;12.88;82.00293;100783.2;;;;-75
2022/10/15 20:32:12;;;;;;;;;;;;;;;12.85;82.0293;100791.6;;;;-75
2022/10/15 20:37:08;;;;;;;;;;;;;;;12.83;81.90332;100796.7;;;;-75
2022/10/15 20:38:26;;;;;;;3.9;0.9;;;;;;;;;;;;;-76
2022/10/15 20:42:07;;;;;;;;;;;;;;;12.8;82.13184;100793.3;;;;-75
2022/10/15 20:47:09;;;;;;;;;;;;;;;12.76;82.1582;100801;;;;-74
2022/10/15 20:52:09;;;;;;;;;;;;;;;12.75;82.2334;100808.5;;;;-76
2022/10/15 20:57:08;;;;;;;;;;;;;;;12.73;82.44043;100818.4;;;;-75
2022/10/15 21:02:08;;;;;;;;;;;;;;;12.72;82.54102;100826.6;;;;-75
2022/10/15 21:07:08;;;;;;;;;;;;;;;12.71;82.52637;100833.1;;;;-77
2022/10/15 21:08:28;;;;;;;3.6;0.9;;;;;;;;;;;;;-76
2022/10/15 21:12:09;;;;;;;;;;;;;;;12.67;82.59668;100842.4;;;;-74
2022/10/15 21:17:08;;;;;;;;;;;;;;;12.62;82.71094;100840.1;;;;-74
2022/10/15 21:22:08;;;;;;;;;;;;;;;12.6;82.82813;100846.4;;;;-75
2022/10/15 21:27:09;;;;;;;;;;;;;;;12.6;83.0166;100846.4;;;;-74
2022/10/15 21:32:09;;;;;;;;;;;;;;;12.57;83.2334;100841.4;;;;-74
2022/10/15 21:37:08;;;;;;;;;;;;;;;12.56;83.27441;100847.6;;;;-75
2022/10/15 21:38:29;;;;;;;4.2;1;;;;;;;;;;;;;-74
2022/10/15 21:42:07;;;;;;;;;;;;;;;12.53;83.16992;100852.1;;;;-75
2022/10/15 21:47:07;;;;;;;;;;;;;;;12.48;83.32617;100862.6;;;;-74
2022/10/15 21:52:08;;;;;;;;;;;;;;;12.46;83.43359;100860.9;;;;-74
2022/10/15 21:57:07;;;;;;;;;;;;;;;12.4;83.10059;100859.7;;;;-75
2022/10/15 22:02:07;;;;;;;;;;;;;;;12.39;83.44336;100863.4;;;;-74
2022/10/15 22:07:10;;;;;;;;;;;;;;;12.35;83.5459;100863.8;;;;-74
2022/10/15 22:08:30;;;;;;;6.4;1.1;;;;;;;;;;;;;-76
2022/10/15 22:12:08;;;;;;;;;;;;;;;12.34;83.56836;100868.4;;;;-74
2022/10/15 22:17:08;;;;;;;;;;;;;;;12.32;83.5752;100864.7;;;;-74
2022/10/15 22:22:08;;;;;;;;;;;;;;;12.32;83.80859;100869.7;;;;-75
2022/10/15 22:27:07;;;;;;;;;;;;;;;12.32;83.85254;100879.2;;;;-74
2022/10/15 22:32:08;;;;;;;;;;;;;;;12.31;83.91602;100879.6;;;;-74
2022/10/15 22:37:07;;;;;;;;;;;;;;;12.32;83.86426;100878.7;;;;-75
2022/10/15 22:38:32;;;;;;;4.6;0.8;;;;;;;;;;;;;-76
2022/10/15 22:42:08;;;;;;;;;;;;;;;12.33;84.06543;100886.6;;;;-75
2022/10/15 22:47:08;;;;;;;;;;;;;;;12.35;84.12305;100882.9;;;;-75
2022/10/15 22:52:08;;;;;;;;;;;;;;;12.36;84.12598;100878.1;;;;-75
2022/10/15 22:57:07;;;;;;;;;;;;;;;12.37;83.9834;100869.3;;;;-75
2022/10/15 23:02:07;;;;;;;;;;;;;;;12.44;83.99609;100869.1;;;;-76
2022/10/15 23:07:07;;;;;;;;;;;;;;;12.46;83.91211;100875.4;;;;-74
2022/10/15 23:08:33;;;;;;;4.9;1;;;;;;;;;;;;;-74
2022/10/15 23:12:08;;;;;;;;;;;;;;;12.47;83.73633;100886;;;;-73
2022/10/15 23:17:07;;;;;;;;;;;;;;;12.5;83.88574;100885.7;;;;-76
2022/10/15 23:22:08;;;;;;;;;;;;;;;12.51;83.33301;100887.3;;;;-74
2022/10/15 23:27:08;;;;;;;;;;;;;;;12.52;83.63574;100883.1;;;;-75
2022/10/15 23:32:08;;;;;;;;;;;;;;;12.51;83.48828;100882.9;;;;-75
2022/10/15 23:37:07;;;;;;;;;;;;;;;12.52;83.3584;100878.9;;;;-74
2022/10/15 23:38:34;;;;;;;4.2;0.9;;;;;;;;;;;;;-75
2022/10/15 23:42:08;;;;;;;;;;;;;;;12.5;83.35352;100884.5;;;;-74
2022/10/15 23:47:08;;;;;;;;;;;;;;;12.5;83.12012;100879.6;;;;-75
2022/10/15 23:52:08;;;;;;;;;;;;;;;12.51;83.13086;100883.1;;;;-75
2022/10/15 23:57:07;;;;;;;;;;;;;;;12.52;83.0791;100880.8;;;;-75
